Terminal Aerodrome Forecast
Issued by NWS Bismarck, ND

Home | Current Version | Previous Version | Text Only | Print | Product List | Glossary Off
Versions: 1 2 3 4 5 6 7 8 9 10 11 12 13 14 15 16 17 18 19 20 21 22 23 24 25

442
FTUS43 KBIS 090529
TAFBIS
TAF
KBIS 090529Z 0906/1006 32004KT P6SM OVC018
     FM091400 35004KT P6SM BKN008
     FM091700 VRB03KT P6SM BKN015
     FM091900 VRB03KT P6SM BKN045=

USA.gov is the U.S. government's official web portal to all federal, state and local government web resources and services.